Tyler Pounds Regional Airport
KTYR : now visible

Airfield :











YOU CAN JOIN US ON...

 
LOGIN :

Register | Disclaimer

   EN    FR    IT 

 









Legend :    VFR   Marginal VFR   IFR   Intensive IFR   Very Intensive IFR
Visi :
Ceiling :
>= 8 km
>= 3000ft
5 to 8 km
1000 to 3000 ft
1500m to 5 km
500 to 1000 ft
800 to 1500m
200 to 500 ft
< 800m
< 200 ft
Symbols :   Thunderstorms  Fog  Heavy snow  Heavy precipitations  Wind > 20 kt






- Airport Elevation : 544 ft
- IATA code : TYR


KTYR - Tyler Pounds Regional

CURRENT METAR :
  • 282053Z 24005KT 10SM CLR 27/15 A2993 RMK AO2 SLP128 T02720150 58023

EXPIRED METARs :
  • 281953Z 00000KT 10SM CLR 26/15 A2996 RMK AO2 SLP137 T02610150
  • 281853Z 14005KT 10SM BKN100 24/17 A2998 RMK AO2 SLP147 T02440167

TAF KTYR
Valid from the 28 at 18:00 until the 29 at 18:00 UTC


281738Z 2818/2918 29005KT P6SM VCTS SCT025 BKN050CB
FM282100 31006KT P6SM VCTS SCT030 BKN060CB
FM290100 31005KT P6SM SCT025 BKN100
FM291000 33005KT P6SM BKN018
FM291500 01009G15KT P6SM BKN025
KZFW FIR / North America



MET'MAP, your aeronautical weather chart ! - Copyright ORBIFLY December 2007 - Disclaimer

ORBIFLY MET'MAP TEAM :

Programming & Development : Alexandra Zaïnal
Concept & original design : Baudouin d'Aumeries
Assistance for programming : Marc-Olivier Méhu
Technical & hardware support : Manuel Goepfert

Contact : metmap@orbifly.com




SOURCES & CREDITS :

   NOAA       Earth
Advisory